Terminal Aerodrome Forecast
Issued by NWS

Home | Current Version | Previous Version | Text Only | Print | Product List | Glossary On
Versions: 1 2 3 4 5 6 7 8 9 10 11 12 13 14 15 16 17 18 19 20 21 22 23 24 25 26 27
000
FTUS46 KOTX 181136
TAFPUW
TAF
KPUW 181136Z 1812/1912 VRB03KT 5SM BR VCSH BKN025 OVC030
     FM181500 13003KT 5SM BR BKN018 OVC022
     FM181800 14007KT P6SM OVC045
     FM190600 12010KT P6SM SCT025 OVC050 PROB30 1908/1912 5SM -RA BR
      OVC030=

USA.gov is the U.S. government's official web portal to all federal, state and local government web resources and services.